createdAt,value
2022-12-17T00:00:37.276Z,46.15
2022-12-17T00:03:22.958Z,54.42
2022-12-17T00:06:10.937Z,50.05
2022-12-17T00:08:56.385Z,48.80
2022-12-17T00:11:41.634Z,50.22
2022-12-17T00:14:27.076Z,60.50
2022-12-17T00:17:12.527Z,55.58
2022-12-17T00:19:58.211Z,52.80
2022-12-17T00:22:43.650Z,49.13
2022-12-17T00:25:29.136Z,60.40
2022-12-17T00:31:00.201Z,50.70
2022-12-17T00:36:31.121Z,57.35
2022-12-17T00:39:16.523Z,50.70
2022-12-17T00:42:02.055Z,48.85
2022-12-17T00:47:32.960Z,50.50
2022-12-17T00:50:18.461Z,49.03
2022-12-17T00:55:49.579Z,50.08
2022-12-17T00:58:35.005Z,46.28
2022-12-17T01:01:20.697Z,46.70
2022-12-17T01:04:06.574Z,50.53
2022-12-17T01:06:52.585Z,57.53
2022-12-17T01:09:39.672Z,48.28
2022-12-17T01:12:26.413Z,47.20
2022-12-17T01:15:13.260Z,47.83
2022-12-17T01:20:44.174Z,40.60
2022-12-17T01:23:29.494Z,43.45
2022-12-17T01:26:16.550Z,43.88
2022-12-17T01:29:01.888Z,45.58
2022-12-17T01:31:47.657Z,39.25
2022-12-17T01:34:35.360Z,38.47
2022-12-17T01:37:22.056Z,37.63
2022-12-17T01:42:58.197Z,41.03
2022-12-17T01:45:47.190Z,40.53
2022-12-17T01:48:36.325Z,38.75
2022-12-17T01:51:22.806Z,42.17
2022-12-17T01:54:11.556Z,38.67
2022-12-17T01:57:00.636Z,37.22
2022-12-17T02:00:05.593Z,40.75
2022-12-17T02:02:59.184Z,39.58
2022-12-17T02:06:12.265Z,38.92
2022-12-17T02:09:07.451Z,34.83
2022-12-17T02:12:14.595Z,27.17
2022-12-17T02:15:06.534Z,39.63
2022-12-17T02:18:01.142Z,34.67
2022-12-17T02:20:57.813Z,37.08
2022-12-17T02:24:15.538Z,41.88
2022-12-17T02:27:08.741Z,38.85
2022-12-17T02:30:08.735Z,33.83
2022-12-17T02:32:58.004Z,39.35
2022-12-17T02:35:54.893Z,33.38
2022-12-17T02:38:45.476Z,37.65
2022-12-17T02:41:54.010Z,33.05
2022-12-17T02:44:41.073Z,36.63
2022-12-17T02:47:29.759Z,34.60
2022-12-17T02:50:15.165Z,30.98
2022-12-17T02:55:49.131Z,31.77
2022-12-17T02:58:36.373Z,33.83
2022-12-17T03:01:22.660Z,35.72
2022-12-17T03:04:08.320Z,36.40
2022-12-17T03:06:53.598Z,38.63
2022-12-17T03:09:39.518Z,34.13
2022-12-17T03:12:24.975Z,35.63
2022-12-17T03:15:10.395Z,32.58
2022-12-17T03:17:55.828Z,31.52
2022-12-17T03:20:41.340Z,37.97
2022-12-17T03:23:29.774Z,34.47
2022-12-17T03:26:21.979Z,38.08
2022-12-17T03:29:07.836Z,45.53
2022-12-17T03:31:53.670Z,43.38
2022-12-17T03:34:39.229Z,36.78
2022-12-17T03:40:11.955Z,38.28
2022-12-17T03:42:57.842Z,39.75
2022-12-17T03:45:43.392Z,33.92
2022-12-17T03:51:15.859Z,35.45
2022-12-17T03:54:02.139Z,32.78
2022-12-17T03:56:50.099Z,34.20
2022-12-17T03:59:35.493Z,34.22
2022-12-17T04:02:21.701Z,32.00
2022-12-17T04:05:07.431Z,33.70
2022-12-17T04:10:38.540Z,27.02
2022-12-17T04:16:09.391Z,27.00
2022-12-17T04:18:54.881Z,27.80
2022-12-17T04:21:40.269Z,29.10
2022-12-17T04:24:25.604Z,30.35
2022-12-17T04:27:10.933Z,29.83
2022-12-17T04:29:56.433Z,21.90
2022-12-17T04:32:42.077Z,27.17
2022-12-17T04:38:13.190Z,27.10
2022-12-17T04:43:44.110Z,22.42
2022-12-17T04:46:29.677Z,27.38
2022-12-17T04:52:00.727Z,20.17
2022-12-17T04:54:46.078Z,24.48
2022-12-17T04:57:31.517Z,27.13
2022-12-17T05:00:16.990Z,30.50
2022-12-17T05:03:02.447Z,28.88
2022-12-17T05:08:36.914Z,27.20
2022-12-17T05:11:26.551Z,25.02
2022-12-17T05:14:11.925Z,30.52
2022-12-17T05:16:57.353Z,25.88
2022-12-17T05:19:42.597Z,26.48
2022-12-17T05:22:28.103Z,27.63
2022-12-17T05:25:13.394Z,26.15
2022-12-17T05:27:58.896Z,26.65
2022-12-17T05:30:44.298Z,31.52
2022-12-17T05:33:29.653Z,30.42
2022-12-17T05:36:21.193Z,29.38
2022-12-17T05:39:07.806Z,26.15
2022-12-17T05:41:53.733Z,30.38
2022-12-17T05:44:39.613Z,27.33
2022-12-17T05:47:25.529Z,35.67
2022-12-17T05:50:10.863Z,29.73
2022-12-17T05:52:56.304Z,32.78
2022-12-17T05:55:41.800Z,29.33
2022-12-17T05:58:29.456Z,34.60
2022-12-17T06:01:22.277Z,41.45
2022-12-17T06:04:07.899Z,34.15
2022-12-17T06:09:39.016Z,35.30
2022-12-17T06:12:24.759Z,38.63
2022-12-17T06:15:10.274Z,37.97
2022-12-17T06:20:41.363Z,40.83
2022-12-17T06:23:29.295Z,50.10
2022-12-17T06:26:15.481Z,43.22
2022-12-17T06:29:02.052Z,38.67
2022-12-17T06:31:47.770Z,46.42
2022-12-17T06:34:33.351Z,41.53
2022-12-17T06:37:18.605Z,46.50
2022-12-17T06:40:04.089Z,44.38
2022-12-17T06:42:49.264Z,48.47
2022-12-17T06:45:34.880Z,46.78
2022-12-17T06:51:15.331Z,47.55
2022-12-17T06:54:01.269Z,48.30
2022-12-17T06:56:47.393Z,51.60
2022-12-17T06:59:32.968Z,53.42
2022-12-17T07:05:04.411Z,61.30
2022-12-17T07:07:50.034Z,59.60
2022-12-17T07:13:25.683Z,61.23
2022-12-17T07:16:12.112Z,63.10
2022-12-17T07:18:58.199Z,65.97
2022-12-17T07:21:44.294Z,68.03
2022-12-17T07:24:29.827Z,65.93
2022-12-17T07:30:00.899Z,62.80
2022-12-17T07:35:31.972Z,75.72
2022-12-17T07:41:03.717Z,65.43
2022-12-17T07:43:53.243Z,68.82
2022-12-17T07:46:39.201Z,62.45
2022-12-17T07:49:26.179Z,64.18
2022-12-17T07:52:12.319Z,62.67
2022-12-17T07:54:57.976Z,60.58
2022-12-17T07:57:44.130Z,59.55
2022-12-17T08:00:30.527Z,58.47
2022-12-17T08:03:17.397Z,59.60
2022-12-17T08:06:03.197Z,56.50
2022-12-17T08:08:48.617Z,54.53
2022-12-17T08:11:38.413Z,55.03
2022-12-17T08:14:24.174Z,53.83
2022-12-17T08:17:09.654Z,56.47
2022-12-17T08:19:55.505Z,55.22
2022-12-17T08:22:40.930Z,51.08
2022-12-17T08:25:26.985Z,48.63
2022-12-17T08:28:48.604Z,50.58
2022-12-17T08:31:22.067Z,59.03
2022-12-17T08:34:08.247Z,55.05
2022-12-17T08:36:53.950Z,49.97
2022-12-17T08:42:24.752Z,53.10
2022-12-17T08:45:10.062Z,48.40
2022-12-17T08:47:59.233Z,49.45
2022-12-17T08:50:49.067Z,48.80
2022-12-17T08:56:20.679Z,45.15
2022-12-17T08:59:06.072Z,47.22
2022-12-17T09:01:52.231Z,51.05
2022-12-17T09:04:37.821Z,45.75
2022-12-17T09:07:23.386Z,46.30
2022-12-17T09:12:54.274Z,46.75
2022-12-17T09:15:39.605Z,51.08
2022-12-17T09:18:25.024Z,44.88
2022-12-17T09:21:13.190Z,42.72
2022-12-17T09:23:59.047Z,42.78
2022-12-17T09:26:44.534Z,42.17
2022-12-17T09:29:29.789Z,45.40
2022-12-17T09:32:15.314Z,41.75
2022-12-17T09:35:00.775Z,41.95
2022-12-17T09:37:46.103Z,41.63
2022-12-17T09:40:39.465Z,38.28
2022-12-17T09:43:56.901Z,38.20
2022-12-17T09:46:57.241Z,37.67
2022-12-17T09:49:46.089Z,41.83
2022-12-17T09:52:38.297Z,37.67
2022-12-17T09:55:39.120Z,33.67
2022-12-17T09:58:32.613Z,27.27
2022-12-17T10:01:18.126Z,26.88
2022-12-17T10:04:05.167Z,27.05
2022-12-17T10:06:51.715Z,28.92
2022-12-17T10:09:38.193Z,32.42
2022-12-17T10:12:38.284Z,33.75
2022-12-17T10:15:25.006Z,31.20
2022-12-17T10:18:10.898Z,28.33
2022-12-17T10:23:48.582Z,31.80
2022-12-17T10:26:40.626Z,27.00
2022-12-17T10:29:35.869Z,28.58
2022-12-17T10:32:42.127Z,27.80
2022-12-17T10:35:42.366Z,27.20
2022-12-17T10:38:43.251Z,26.75
2022-12-17T10:41:41.296Z,24.83
2022-12-17T10:44:44.887Z,25.80
2022-12-17T10:47:47.413Z,23.75
2022-12-17T10:50:38.793Z,31.05
2022-12-17T10:53:37.263Z,26.48
2022-12-17T10:56:23.951Z,28.67
2022-12-17T10:59:12.504Z,24.67
2022-12-17T11:01:59.021Z,29.38
2022-12-17T11:04:57.787Z,31.48
2022-12-17T11:07:47.457Z,27.58
2022-12-17T11:10:42.397Z,26.35
2022-12-17T11:13:32.301Z,34.30
2022-12-17T11:16:19.269Z,29.10
2022-12-17T11:19:17.350Z,26.50
2022-12-17T11:22:09.708Z,31.92
2022-12-17T11:25:08.820Z,26.75
2022-12-17T11:28:09.557Z,26.45
2022-12-17T11:31:08.551Z,31.17
2022-12-17T11:34:06.348Z,31.67
2022-12-17T11:37:06.910Z,31.80
2022-12-17T11:40:08.450Z,28.83
2022-12-17T11:43:02.758Z,33.10
2022-12-17T11:46:17.815Z,27.70
2022-12-17T11:49:41.145Z,28.95
2022-12-17T11:52:49.568Z,26.92
2022-12-17T11:56:03.426Z,26.80
2022-12-17T11:59:03.528Z,29.38
2022-12-17T12:02:12.199Z,28.92
2022-12-17T12:05:23.602Z,27.08
2022-12-17T12:08:34.233Z,29.08
2022-12-17T12:11:33.756Z,30.10
2022-12-17T12:14:37.957Z,31.15
2022-12-17T12:17:41.819Z,32.47
2022-12-17T12:20:45.725Z,28.80
2022-12-17T12:23:45.270Z,27.15
2022-12-17T12:26:38.754Z,26.35
2022-12-17T12:29:42.648Z,32.20
2022-12-17T12:33:09.746Z,33.22
2022-12-17T12:38:49.460Z,29.48
2022-12-17T12:41:52.979Z,31.52
2022-12-17T12:44:51.497Z,31.55
2022-12-17T12:48:01.459Z,32.40
2022-12-17T12:51:07.408Z,33.17
2022-12-17T12:53:52.867Z,32.00
2022-12-17T12:57:08.105Z,34.50
2022-12-17T12:59:55.503Z,34.95
2022-12-17T13:02:50.727Z,30.58
2022-12-17T13:05:44.402Z,33.67
2022-12-17T13:08:11.221Z,35.30
2022-12-17T13:10:38.046Z,35.70
2022-12-17T13:13:15.746Z,34.83
2022-12-17T13:15:53.299Z,35.42
2022-12-17T13:18:33.421Z,38.15
2022-12-17T13:21:06.065Z,35.45
2022-12-17T13:23:38.121Z,35.35
2022-12-17T13:26:42.987Z,37.22
2022-12-17T13:29:34.298Z,34.80
2022-12-17T13:32:01.299Z,36.05
2022-12-17T13:34:42.425Z,37.60
2022-12-17T13:38:02.782Z,37.10
2022-12-17T13:40:47.795Z,38.85
2022-12-17T13:43:17.625Z,35.00
2022-12-17T13:45:45.342Z,39.15
2022-12-17T13:48:24.483Z,36.63
2022-12-17T13:51:04.372Z,36.40
2022-12-17T13:53:35.452Z,43.67
2022-12-17T13:56:02.398Z,38.92
2022-12-17T13:58:32.357Z,39.75
2022-12-17T14:01:11.209Z,38.72
2022-12-17T14:06:33.084Z,36.47
2022-12-17T14:09:00.677Z,37.40
2022-12-17T14:11:46.379Z,41.25
2022-12-17T14:16:52.381Z,39.22
2022-12-17T14:19:19.312Z,40.05
2022-12-17T14:21:46.421Z,36.83
2022-12-17T14:24:14.483Z,39.45
2022-12-17T14:26:53.913Z,41.42
2022-12-17T14:29:30.835Z,40.60
2022-12-17T14:32:21.298Z,40.58
2022-12-17T14:34:48.317Z,42.80
2022-12-17T14:37:21.797Z,43.78
2022-12-17T14:39:49.369Z,44.63
2022-12-17T14:42:25.512Z,42.80
2022-12-17T14:45:07.875Z,43.50
2022-12-17T14:47:36.781Z,44.03
2022-12-17T14:50:06.505Z,41.63
2022-12-17T14:52:42.745Z,44.05
2022-12-17T14:55:55.511Z,46.53
2022-12-17T14:58:24.166Z,45.40
2022-12-17T15:00:54.066Z,49.40
2022-12-17T15:03:25.424Z,48.70
2022-12-17T15:05:56.182Z,49.85
2022-12-17T15:08:23.309Z,51.88
2022-12-17T15:10:50.314Z,53.72
2022-12-17T15:13:17.162Z,57.50
2022-12-17T15:15:44.026Z,56.58
2022-12-17T15:18:10.966Z,59.45
2022-12-17T15:20:37.786Z,54.20
2022-12-17T15:23:04.745Z,58.80
2022-12-17T15:25:31.816Z,63.55
2022-12-17T15:27:58.764Z,58.20
2022-12-17T15:30:25.977Z,56.33
2022-12-17T15:32:52.997Z,58.97
2022-12-17T15:35:19.980Z,59.15
2022-12-17T15:37:46.960Z,59.85
2022-12-17T15:40:14.095Z,56.95
2022-12-17T15:43:04.677Z,65.05
2022-12-17T15:45:33.374Z,59.17
2022-12-17T15:48:00.243Z,59.92
2022-12-17T15:50:27.200Z,61.17
2022-12-17T15:52:54.326Z,64.75
2022-12-17T15:55:21.376Z,62.13
2022-12-17T15:57:48.190Z,64.50
2022-12-17T16:00:15.921Z,68.10
2022-12-17T16:02:42.918Z,68.93
2022-12-17T16:05:10.483Z,65.93
2022-12-17T16:07:38.096Z,68.50
2022-12-17T16:10:06.447Z,65.30
2022-12-17T16:12:33.694Z,67.60
2022-12-17T16:15:00.595Z,68.43
2022-12-17T16:17:27.433Z,72.47
2022-12-17T16:19:54.326Z,71.45
2022-12-17T16:22:21.279Z,75.10
2022-12-17T16:24:48.527Z,65.18
2022-12-17T16:27:18.091Z,68.85
2022-12-17T16:29:47.619Z,67.18
2022-12-17T16:32:16.029Z,67.07
2022-12-17T16:34:43.733Z,75.15
2022-12-17T16:37:10.970Z,68.47
2022-12-17T16:39:37.869Z,69.22
2022-12-17T16:42:04.945Z,80.63
2022-12-17T16:44:31.976Z,79.65
2022-12-17T16:46:59.771Z,76.75
2022-12-17T16:49:27.190Z,79.03
2022-12-17T16:51:55.781Z,72.97
2022-12-17T16:54:27.146Z,69.85
2022-12-17T16:56:54.917Z,75.60
2022-12-17T16:59:22.451Z,75.68
2022-12-17T17:01:50.881Z,75.22
2022-12-17T17:04:20.760Z,76.80
2022-12-17T17:06:50.453Z,79.22
2022-12-17T17:09:18.605Z,89.72
2022-12-17T17:11:51.215Z,88.80
2022-12-17T17:14:19.196Z,90.32
2022-12-17T17:16:46.177Z,83.82
2022-12-17T17:19:13.163Z,88.50
2022-12-17T17:21:42.307Z,85.35
2022-12-17T17:24:21.173Z,83.13
2022-12-17T17:26:50.614Z,87.57
2022-12-17T17:29:17.943Z,95.57
2022-12-17T17:34:31.875Z,84.28
2022-12-17T17:36:58.682Z,93.70
2022-12-17T17:39:25.804Z,95.18
2022-12-17T17:41:52.647Z,91.45
2022-12-17T17:44:19.570Z,91.60
2022-12-17T17:46:46.432Z,93.95
2022-12-17T17:49:13.484Z,86.32
2022-12-17T17:54:29.375Z,96.80
2022-12-17T17:56:56.210Z,94.05
2022-12-17T17:59:29.595Z,96.95
2022-12-17T18:02:00.519Z,100.78
2022-12-17T18:04:27.985Z,101.10
2022-12-17T18:09:41.976Z,100.10
2022-12-17T18:12:29.263Z,111.47
2022-12-17T18:17:44.297Z,99.80
2022-12-17T18:20:12.684Z,100.15
2022-12-17T18:22:39.576Z,93.35
2022-12-17T18:25:06.540Z,102.32
2022-12-17T18:27:33.447Z,103.47
2022-12-17T18:30:00.268Z,104.47
2022-12-17T18:32:27.264Z,98.35
2022-12-17T18:34:54.164Z,110.13
2022-12-17T18:37:21.132Z,100.65
2022-12-17T18:39:49.035Z,105.22
2022-12-17T18:42:34.420Z,105.47
2022-12-17T18:45:02.552Z,99.60
2022-12-17T18:47:29.532Z,102.15
2022-12-17T18:49:57.369Z,108.03
2022-12-17T18:52:24.700Z,98.15
2022-12-17T18:54:51.611Z,108.32
2022-12-17T18:57:18.488Z,103.38
2022-12-17T18:59:45.482Z,108.82
2022-12-17T19:02:13.134Z,104.82
2022-12-17T19:04:40.781Z,104.60
2022-12-17T19:07:07.636Z,103.88
2022-12-17T19:09:35.726Z,106.85
2022-12-17T19:12:05.298Z,112.03
2022-12-17T19:14:32.518Z,108.00
2022-12-17T19:16:59.369Z,101.88
2022-12-17T19:19:27.152Z,101.15
2022-12-17T19:21:55.433Z,115.10
2022-12-17T19:24:23.413Z,111.13
2022-12-17T19:26:51.003Z,108.00
2022-12-17T19:29:19.372Z,110.85
2022-12-17T19:31:46.800Z,110.43
2022-12-17T19:34:15.589Z,111.65
2022-12-17T19:36:42.983Z,110.20
2022-12-17T19:39:13.289Z,109.90
2022-12-17T19:41:40.674Z,115.32
2022-12-17T19:44:11.344Z,118.13
2022-12-17T19:46:38.574Z,113.68
2022-12-17T19:49:08.467Z,121.13
2022-12-17T19:51:38.784Z,121.22
2022-12-17T19:54:08.877Z,109.22
2022-12-17T19:56:36.982Z,118.50
2022-12-17T19:59:09.578Z,120.90
2022-12-17T20:01:40.049Z,120.40
2022-12-17T20:04:07.125Z,116.80
2022-12-17T20:06:35.147Z,114.70
2022-12-17T20:09:04.559Z,123.32
2022-12-17T20:11:34.944Z,121.72
2022-12-17T20:14:08.291Z,128.43
2022-12-17T20:16:39.005Z,140.40
2022-12-17T20:19:08.092Z,125.10
2022-12-17T20:21:35.149Z,132.95
2022-12-17T20:24:02.108Z,142.75
2022-12-17T20:26:29.119Z,132.55
2022-12-17T20:28:56.748Z,135.55
2022-12-17T20:31:23.638Z,133.20
2022-12-17T20:33:50.602Z,126.30
2022-12-17T20:36:22.019Z,130.10
2022-12-17T20:38:49.271Z,127.25
2022-12-17T20:41:19.484Z,125.95
2022-12-17T20:43:47.272Z,121.30
2022-12-17T20:46:14.594Z,122.28
2022-12-17T20:48:43.257Z,133.88
2022-12-17T20:51:14.855Z,121.60
2022-12-17T20:53:42.845Z,128.25
2022-12-17T20:56:12.209Z,133.40
2022-12-17T20:58:40.042Z,131.57
2022-12-17T21:01:13.094Z,118.07
2022-12-17T21:03:40.824Z,133.38
2022-12-17T21:06:38.911Z,135.18
2022-12-17T21:09:06.634Z,125.65
2022-12-17T21:11:35.505Z,122.18
2022-12-17T21:14:14.006Z,124.70
2022-12-17T21:16:42.527Z,124.20
2022-12-17T21:19:13.579Z,128.90
2022-12-17T21:21:40.827Z,127.75
2022-12-17T21:24:08.450Z,123.72
2022-12-17T21:26:37.819Z,137.93
2022-12-17T21:29:06.937Z,131.00
2022-12-17T21:31:45.446Z,136.88
2022-12-17T21:34:16.680Z,139.77
2022-12-17T21:36:45.220Z,142.65
2022-12-17T21:39:13.621Z,143.93
2022-12-17T21:41:44.466Z,144.70
2022-12-17T21:44:15.151Z,143.85
2022-12-17T21:46:43.220Z,139.13
2022-12-17T21:49:10.915Z,160.18
2022-12-17T21:51:38.136Z,147.15
2022-12-17T21:54:08.669Z,161.05
2022-12-17T21:56:36.645Z,137.52
2022-12-17T21:59:03.678Z,158.15
2022-12-17T22:01:33.624Z,141.93
2022-12-17T22:04:04.342Z,148.15
2022-12-17T22:06:37.842Z,161.25
2022-12-17T22:09:21.533Z,136.75
2022-12-17T22:12:34.025Z,154.27
2022-12-17T22:15:00.986Z,155.38
2022-12-17T22:17:28.550Z,149.85
2022-12-17T22:19:55.396Z,166.73
2022-12-17T22:22:22.246Z,163.98
2022-12-17T22:24:49.095Z,161.23
2022-12-17T22:27:16.090Z,173.27
2022-12-17T22:30:01.513Z,162.75
2022-12-17T22:32:46.845Z,168.48
2022-12-17T22:36:21.311Z,160.57
2022-12-17T22:40:10.070Z,175.65
2022-12-17T22:42:24.529Z,167.75
2022-12-17T22:44:48.775Z,176.05
2022-12-17T22:46:23.527Z,166.55
2022-12-17T22:48:50.420Z,174.10
2022-12-17T22:51:25.514Z,170.02
2022-12-17T22:53:54.320Z,177.00
2022-12-17T22:56:58.711Z,184.88
2022-12-17T22:59:14.494Z,192.75
2022-12-17T23:01:41.392Z,182.02
2022-12-17T23:04:11.765Z,187.85
2022-12-17T23:06:38.942Z,195.10
2022-12-17T23:09:05.742Z,178.13
2022-12-17T23:11:32.624Z,179.40
2022-12-17T23:13:59.461Z,177.70
2022-12-17T23:16:27.874Z,179.18
2022-12-17T23:18:55.486Z,174.60
2022-12-17T23:21:25.053Z,191.38
2022-12-17T23:23:53.304Z,173.57
2022-12-17T23:26:22.852Z,186.75
2022-12-17T23:28:54.575Z,172.52
2022-12-17T23:31:24.960Z,163.50
2022-12-17T23:33:51.878Z,169.45
2022-12-17T23:36:24.722Z,162.55
2022-12-17T23:38:52.824Z,171.70
2022-12-17T23:41:22.660Z,173.90
2022-12-17T23:43:49.944Z,173.00
2022-12-17T23:46:18.106Z,155.98
2022-12-17T23:48:46.384Z,168.77
2022-12-17T23:51:18.137Z,162.50
2022-12-17T23:53:45.182Z,163.52
2022-12-17T23:56:15.588Z,162.57
2022-12-17T23:58:43.812Z,175.95
